sensor_id;sensor_type;location;lat;lon;timestamp;P1;durP1;ratioP1;P2;durP2;ratioP2
49514;SDS011;35415;47.870;16.058;2024-02-04T00:01:44;2.38;;;1.83;;
49514;SDS011;35415;47.870;16.058;2024-02-04T00:04:11;1.45;;;1.33;;
49514;SDS011;35415;47.870;16.058;2024-02-04T00:06:38;2.40;;;2.20;;
49514;SDS011;35415;47.870;16.058;2024-02-04T00:09:07;3.65;;;2.08;;
49514;SDS011;35415;47.870;16.058;2024-02-04T00:11:34;3.63;;;2.00;;
49514;SDS011;35415;47.870;16.058;2024-02-04T00:14:01;2.35;;;1.95;;
49514;SDS011;35415;47.870;16.058;2024-02-04T00:16:28;2.78;;;1.75;;
49514;SDS011;35415;47.870;16.058;2024-02-04T00:18:55;2.10;;;1.60;;
49514;SDS011;35415;47.870;16.058;2024-02-04T00:21:22;2.05;;;1.83;;
49514;SDS011;35415;47.870;16.058;2024-02-04T00:23:50;2.10;;;1.90;;
49514;SDS011;35415;47.870;16.058;2024-02-04T00:26:18;2.00;;;1.67;;
49514;SDS011;35415;47.870;16.058;2024-02-04T00:28:45;3.88;;;1.90;;
49514;SDS011;35415;47.870;16.058;2024-02-04T00:31:12;2.47;;;1.90;;
49514;SDS011;35415;47.870;16.058;2024-02-04T00:33:39;1.50;;;1.40;;
49514;SDS011;35415;47.870;16.058;2024-02-04T00:36:07;1.73;;;1.38;;
49514;SDS011;35415;47.870;16.058;2024-02-04T00:38:34;2.53;;;1.95;;
49514;SDS011;35415;47.870;16.058;2024-02-04T00:41:01;2.13;;;1.63;;
49514;SDS011;35415;47.870;16.058;2024-02-04T00:43:30;2.53;;;1.85;;
49514;SDS011;35415;47.870;16.058;2024-02-04T00:45:57;1.65;;;1.23;;
49514;SDS011;35415;47.870;16.058;2024-02-04T00:48:25;2.05;;;1.40;;
49514;SDS011;35415;47.870;16.058;2024-02-04T00:50:52;1.60;;;1.20;;
49514;SDS011;35415;47.870;16.058;2024-02-04T00:53:19;1.58;;;1.17;;
49514;SDS011;35415;47.870;16.058;2024-02-04T00:55:46;3.22;;;1.17;;
49514;SDS011;35415;47.870;16.058;2024-02-04T00:58:13;1.15;;;0.98;;
49514;SDS011;35415;47.870;16.058;2024-02-04T01:00:42;0.80;;;0.80;;
49514;SDS011;35415;47.870;16.058;2024-02-04T01:03:09;0.93;;;0.75;;
49514;SDS011;35415;47.870;16.058;2024-02-04T01:05:36;1.00;;;0.90;;
49514;SDS011;35415;47.870;16.058;2024-02-04T01:08:04;0.60;;;0.60;;
49514;SDS011;35415;47.870;16.058;2024-02-04T01:10:31;0.80;;;0.70;;
49514;SDS011;35415;47.870;16.058;2024-02-04T01:12:58;0.70;;;0.70;;
49514;SDS011;35415;47.870;16.058;2024-02-04T01:15:25;0.68;;;0.60;;
49514;SDS011;35415;47.870;16.058;2024-02-04T01:17:54;0.88;;;0.75;;
49514;SDS011;35415;47.870;16.058;2024-02-04T01:20:21;0.63;;;0.60;;
49514;SDS011;35415;47.870;16.058;2024-02-04T01:22:48;0.60;;;0.60;;
49514;SDS011;35415;47.870;16.058;2024-02-04T01:25:15;0.93;;;0.80;;
49514;SDS011;35415;47.870;16.058;2024-02-04T01:27:42;0.60;;;0.60;;
49514;SDS011;35415;47.870;16.058;2024-02-04T01:30:09;0.95;;;0.70;;
49514;SDS011;35415;47.870;16.058;2024-02-04T01:32:36;1.23;;;0.70;;
49514;SDS011;35415;47.870;16.058;2024-02-04T01:35:06;1.42;;;0.80;;
49514;SDS011;35415;47.870;16.058;2024-02-04T01:37:34;1.30;;;0.70;;
49514;SDS011;35415;47.870;16.058;2024-02-04T01:40:01;0.68;;;0.60;;
49514;SDS011;35415;47.870;16.058;2024-02-04T01:42:30;0.52;;;0.52;;
49514;SDS011;35415;47.870;16.058;2024-02-04T01:44:57;0.50;;;0.50;;
49514;SDS011;35415;47.870;16.058;2024-02-04T01:47:25;0.68;;;0.57;;
49514;SDS011;35415;47.870;16.058;2024-02-04T01:49:52;1.27;;;0.77;;
49514;SDS011;35415;47.870;16.058;2024-02-04T01:52:20;0.60;;;0.50;;
49514;SDS011;35415;47.870;16.058;2024-02-04T01:54:47;0.50;;;0.50;;
49514;SDS011;35415;47.870;16.058;2024-02-04T01:57:16;0.60;;;0.60;;
49514;SDS011;35415;47.870;16.058;2024-02-04T01:59:43;0.50;;;0.50;;
49514;SDS011;35415;47.870;16.058;2024-02-04T02:02:11;1.20;;;0.82;;
49514;SDS011;35415;47.870;16.058;2024-02-04T02:04:39;0.70;;;0.60;;
49514;SDS011;35415;47.870;16.058;2024-02-04T02:07:06;0.45;;;0.40;;
49514;SDS011;35415;47.870;16.058;2024-02-04T02:09:35;0.80;;;0.60;;
49514;SDS011;35415;47.870;16.058;2024-02-04T02:12:03;0.60;;;0.57;;
49514;SDS011;35415;47.870;16.058;2024-02-04T02:14:37;0.40;;;0.40;;
49514;SDS011;35415;47.870;16.058;2024-02-04T02:17:10;0.75;;;0.50;;
49514;SDS011;35415;47.870;16.058;2024-02-04T02:19:44;1.25;;;0.70;;
49514;SDS011;35415;47.870;16.058;2024-02-04T02:22:21;0.77;;;0.63;;
49514;SDS011;35415;47.870;16.058;2024-02-04T02:24:54;0.75;;;0.65;;
49514;SDS011;35415;47.870;16.058;2024-02-04T02:27:23;0.60;;;0.60;;
49514;SDS011;35415;47.870;16.058;2024-02-04T02:29:50;1.00;;;0.47;;
49514;SDS011;35415;47.870;16.058;2024-02-04T02:32:17;0.57;;;0.40;;
49514;SDS011;35415;47.870;16.058;2024-02-04T02:34:44;0.45;;;0.45;;
49514;SDS011;35415;47.870;16.058;2024-02-04T02:37:27;0.40;;;0.40;;
49514;SDS011;35415;47.870;16.058;2024-02-04T02:40:05;0.40;;;0.40;;
49514;SDS011;35415;47.870;16.058;2024-02-04T02:42:37;0.32;;;0.32;;
49514;SDS011;35415;47.870;16.058;2024-02-04T02:45:07;1.02;;;0.57;;
49514;SDS011;35415;47.870;16.058;2024-02-04T02:47:35;0.40;;;0.38;;
49514;SDS011;35415;47.870;16.058;2024-02-04T02:50:05;0.57;;;0.57;;
49514;SDS011;35415;47.870;16.058;2024-02-04T02:52:33;0.95;;;0.50;;
49514;SDS011;35415;47.870;16.058;2024-02-04T02:55:00;0.43;;;0.40;;
49514;SDS011;35415;47.870;16.058;2024-02-04T02:57:29;0.43;;;0.35;;
49514;SDS011;35415;47.870;16.058;2024-02-04T02:59:56;0.20;;;0.20;;
49514;SDS011;35415;47.870;16.058;2024-02-04T03:02:23;0.40;;;0.40;;
49514;SDS011;35415;47.870;16.058;2024-02-04T03:04:50;0.50;;;0.30;;
49514;SDS011;35415;47.870;16.058;2024-02-04T03:07:17;0.50;;;0.40;;
49514;SDS011;35415;47.870;16.058;2024-02-04T03:09:44;0.30;;;0.30;;
49514;SDS011;35415;47.870;16.058;2024-02-04T03:12:11;1.63;;;0.38;;
49514;SDS011;35415;47.870;16.058;2024-02-04T03:14:40;0.65;;;0.50;;
49514;SDS011;35415;47.870;16.058;2024-02-04T03:17:07;0.52;;;0.28;;
49514;SDS011;35415;47.870;16.058;2024-02-04T03:19:34;1.95;;;0.30;;
49514;SDS011;35415;47.870;16.058;2024-02-04T03:22:01;0.25;;;0.25;;
49514;SDS011;35415;47.870;16.058;2024-02-04T03:24:28;1.00;;;0.40;;
49514;SDS011;35415;47.870;16.058;2024-02-04T03:26:55;0.20;;;0.20;;
49514;SDS011;35415;47.870;16.058;2024-02-04T03:29:22;0.30;;;0.25;;
49514;SDS011;35415;47.870;16.058;2024-02-04T03:31:51;1.13;;;0.20;;
49514;SDS011;35415;47.870;16.058;2024-02-04T03:34:18;0.20;;;0.17;;
49514;SDS011;35415;47.870;16.058;2024-02-04T03:36:45;0.40;;;0.20;;
49514;SDS011;35415;47.870;16.058;2024-02-04T03:39:12;0.52;;;0.30;;
49514;SDS011;35415;47.870;16.058;2024-02-04T03:41:40;0.20;;;0.20;;
49514;SDS011;35415;47.870;16.058;2024-02-04T03:44:07;0.10;;;0.10;;
49514;SDS011;35415;47.870;16.058;2024-02-04T03:46:34;0.43;;;0.40;;
49514;SDS011;35415;47.870;16.058;2024-02-04T03:49:03;0.38;;;0.38;;
49514;SDS011;35415;47.870;16.058;2024-02-04T03:51:30;0.10;;;0.10;;
49514;SDS011;35415;47.870;16.058;2024-02-04T03:53:57;0.30;;;0.30;;
49514;SDS011;35415;47.870;16.058;2024-02-04T03:56:24;0.43;;;0.30;;
49514;SDS011;35415;47.870;16.058;2024-02-04T03:58:51;0.20;;;0.20;;
49514;SDS011;35415;47.870;16.058;2024-02-04T04:01:18;1.80;;;0.28;;
49514;SDS011;35415;47.870;16.058;2024-02-04T04:03:45;0.10;;;0.10;;
49514;SDS011;35415;47.870;16.058;2024-02-04T04:06:14;0.28;;;0.28;;
49514;SDS011;35415;47.870;16.058;2024-02-04T04:08:42;0.20;;;0.20;;
49514;SDS011;35415;47.870;16.058;2024-02-04T04:11:09;0.30;;;0.30;;
49514;SDS011;35415;47.870;16.058;2024-02-04T04:13:37;0.28;;;0.28;;
49514;SDS011;35415;47.870;16.058;2024-02-04T04:16:05;0.20;;;0.20;;
49514;SDS011;35415;47.870;16.058;2024-02-04T04:18:32;0.20;;;0.10;;
49514;SDS011;35415;47.870;16.058;2024-02-04T04:21:00;0.13;;;0.13;;
49514;SDS011;35415;47.870;16.058;2024-02-04T04:23:29;0.22;;;0.20;;
49514;SDS011;35415;47.870;16.058;2024-02-04T04:25:56;0.20;;;0.20;;
49514;SDS011;35415;47.870;16.058;2024-02-04T04:28:23;0.10;;;0.10;;
49514;SDS011;35415;47.870;16.058;2024-02-04T04:30:50;0.10;;;0.10;;
49514;SDS011;35415;47.870;16.058;2024-02-04T04:33:18;0.20;;;0.20;;
49514;SDS011;35415;47.870;16.058;2024-02-04T04:35:45;0.20;;;0.20;;
49514;SDS011;35415;47.870;16.058;2024-02-04T04:38:12;1.17;;;0.10;;
49514;SDS011;35415;47.870;16.058;2024-02-04T04:40:41;0.22;;;0.20;;
49514;SDS011;35415;47.870;16.058;2024-02-04T04:43:08;0.20;;;0.20;;
49514;SDS011;35415;47.870;16.058;2024-02-04T04:45:35;0.10;;;0.10;;
49514;SDS011;35415;47.870;16.058;2024-02-04T04:48:02;0.20;;;0.10;;
49514;SDS011;35415;47.870;16.058;2024-02-04T04:50:30;0.10;;;0.10;;
49514;SDS011;35415;47.870;16.058;2024-02-04T04:52:57;0.20;;;0.20;;
49514;SDS011;35415;47.870;16.058;2024-02-04T04:55:24;0.10;;;0.10;;
49514;SDS011;35415;47.870;16.058;2024-02-04T04:57:53;0.20;;;0.20;;
49514;SDS011;35415;47.870;16.058;2024-02-04T05:00:20;0.10;;;0.10;;
49514;SDS011;35415;47.870;16.058;2024-02-04T05:02:47;0.10;;;0.10;;
49514;SDS011;35415;47.870;16.058;2024-02-04T05:05:14;0.15;;;0.15;;
49514;SDS011;35415;47.870;16.058;2024-02-04T05:07:41;0.00;;;0.00;;
49514;SDS011;35415;47.870;16.058;2024-02-04T05:10:08;0.20;;;0.20;;
49514;SDS011;35415;47.870;16.058;2024-02-04T05:12:36;0.13;;;0.13;;
49514;SDS011;35415;47.870;16.058;2024-02-04T05:15:05;0.10;;;0.10;;
49514;SDS011;35415;47.870;16.058;2024-02-04T05:17:33;0.10;;;0.10;;
49514;SDS011;35415;47.870;16.058;2024-02-04T05:20:00;0.10;;;0.10;;
49514;SDS011;35415;47.870;16.058;2024-02-04T05:22:28;0.10;;;0.00;;
49514;SDS011;35415;47.870;16.058;2024-02-04T05:24:56;0.13;;;0.13;;
49514;SDS011;35415;47.870;16.058;2024-02-04T05:27:23;0.10;;;0.10;;
49514;SDS011;35415;47.870;16.058;2024-02-04T05:29:50;0.10;;;0.10;;
49514;SDS011;35415;47.870;16.058;2024-02-04T05:32:18;0.00;;;0.00;;
49514;SDS011;35415;47.870;16.058;2024-02-04T05:34:46;0.13;;;0.13;;
49514;SDS011;35415;47.870;16.058;2024-02-04T05:37:13;0.10;;;0.10;;
49514;SDS011;35415;47.870;16.058;2024-02-04T05:39:40;0.10;;;0.10;;
49514;SDS011;35415;47.870;16.058;2024-02-04T05:42:07;0.10;;;0.10;;
49514;SDS011;35415;47.870;16.058;2024-02-04T05:44:34;0.10;;;0.10;;
49514;SDS011;35415;47.870;16.058;2024-02-04T05:47:01;0.15;;;0.00;;
49514;SDS011;35415;47.870;16.058;2024-02-04T05:49:30;0.82;;;0.60;;
49514;SDS011;35415;47.870;16.058;2024-02-04T05:51:57;0.10;;;0.10;;
49514;SDS011;35415;47.870;16.058;2024-02-04T05:54:24;0.10;;;0.10;;
49514;SDS011;35415;47.870;16.058;2024-02-04T05:56:51;1.25;;;0.20;;
49514;SDS011;35415;47.870;16.058;2024-02-04T05:59:18;0.10;;;0.10;;
49514;SDS011;35415;47.870;16.058;2024-02-04T06:01:45;0.00;;;0.00;;
49514;SDS011;35415;47.870;16.058;2024-02-04T06:04:12;0.00;;;0.00;;
49514;SDS011;35415;47.870;16.058;2024-02-04T06:06:41;0.13;;;0.10;;
49514;SDS011;35415;47.870;16.058;2024-02-04T06:09:08;0.10;;;0.10;;
49514;SDS011;35415;47.870;16.058;2024-02-04T06:11:35;0.03;;;0.03;;
49514;SDS011;35415;47.870;16.058;2024-02-04T06:14:02;0.00;;;0.00;;
49514;SDS011;35415;47.870;16.058;2024-02-04T06:16:29;0.10;;;0.10;;
49514;SDS011;35415;47.870;16.058;2024-02-04T06:18:59;0.00;;;0.00;;
49514;SDS011;35415;47.870;16.058;2024-02-04T06:21:26;0.00;;;0.00;;
49514;SDS011;35415;47.870;16.058;2024-02-04T06:23:54;0.28;;;0.17;;
49514;SDS011;35415;47.870;16.058;2024-02-04T06:26:22;0.55;;;0.30;;
49514;SDS011;35415;47.870;16.058;2024-02-04T06:28:49;0.10;;;0.10;;
49514;SDS011;35415;47.870;16.058;2024-02-04T06:31:16;0.10;;;0.10;;
49514;SDS011;35415;47.870;16.058;2024-02-04T06:33:43;0.10;;;0.10;;
49514;SDS011;35415;47.870;16.058;2024-02-04T06:36:10;0.20;;;0.20;;
49514;SDS011;35415;47.870;16.058;2024-02-04T06:38:38;0.10;;;0.10;;
49514;SDS011;35415;47.870;16.058;2024-02-04T06:41:06;0.10;;;0.10;;
49514;SDS011;35415;47.870;16.058;2024-02-04T06:43:33;0.30;;;0.30;;
49514;SDS011;35415;47.870;16.058;2024-02-04T06:46:03;5.47;;;3.60;;
49514;SDS011;35415;47.870;16.058;2024-02-04T06:48:31;0.80;;;0.60;;
49514;SDS011;35415;47.870;16.058;2024-02-04T06:50:58;0.68;;;0.68;;
49514;SDS011;35415;47.870;16.058;2024-02-04T06:53:25;0.70;;;0.70;;
49514;SDS011;35415;47.870;16.058;2024-02-04T06:55:52;1.70;;;1.20;;
49514;SDS011;35415;47.870;16.058;2024-02-04T06:58:21;1.05;;;0.95;;
49514;SDS011;35415;47.870;16.058;2024-02-04T07:00:48;1.23;;;0.88;;
49514;SDS011;35415;47.870;16.058;2024-02-04T07:03:15;0.50;;;0.50;;
49514;SDS011;35415;47.870;16.058;2024-02-04T07:05:42;0.40;;;0.40;;
49514;SDS011;35415;47.870;16.058;2024-02-04T07:08:12;1.20;;;0.90;;
49514;SDS011;35415;47.870;16.058;2024-02-04T07:10:39;0.85;;;0.60;;
49514;SDS011;35415;47.870;16.058;2024-02-04T07:13:07;0.80;;;0.65;;
49514;SDS011;35415;47.870;16.058;2024-02-04T07:15:38;3.13;;;1.77;;
49514;SDS011;35415;47.870;16.058;2024-02-04T07:18:05;0.40;;;0.30;;
49514;SDS011;35415;47.870;16.058;2024-02-04T07:20:32;0.52;;;0.30;;
49514;SDS011;35415;47.870;16.058;2024-02-04T07:23:00;0.40;;;0.40;;
49514;SDS011;35415;47.870;16.058;2024-02-04T07:25:27;0.82;;;0.30;;
49514;SDS011;35415;47.870;16.058;2024-02-04T07:27:54;0.90;;;0.43;;
49514;SDS011;35415;47.870;16.058;2024-02-04T07:30:21;0.75;;;0.60;;
49514;SDS011;35415;47.870;16.058;2024-02-04T07:32:50;0.68;;;0.52;;
49514;SDS011;35415;47.870;16.058;2024-02-04T07:35:17;0.82;;;0.50;;
49514;SDS011;35415;47.870;16.058;2024-02-04T07:37:44;0.65;;;0.47;;
49514;SDS011;35415;47.870;16.058;2024-02-04T07:40:12;0.30;;;0.20;;
49514;SDS011;35415;47.870;16.058;2024-02-04T07:42:39;0.80;;;0.45;;
49514;SDS011;35415;47.870;16.058;2024-02-04T07:45:06;0.20;;;0.20;;
49514;SDS011;35415;47.870;16.058;2024-02-04T07:47:35;0.68;;;0.40;;
49514;SDS011;35415;47.870;16.058;2024-02-04T07:50:04;0.25;;;0.22;;
49514;SDS011;35415;47.870;16.058;2024-02-04T07:52:32;0.15;;;0.13;;
49514;SDS011;35415;47.870;16.058;2024-02-04T07:54:59;0.30;;;0.30;;
49514;SDS011;35415;47.870;16.058;2024-02-04T07:57:26;0.10;;;0.10;;
49514;SDS011;35415;47.870;16.058;2024-02-04T07:59:54;0.20;;;0.20;;
49514;SDS011;35415;47.870;16.058;2024-02-04T08:02:21;0.20;;;0.20;;
49514;SDS011;35415;47.870;16.058;2024-02-04T08:04:48;0.45;;;0.15;;
49514;SDS011;35415;47.870;16.058;2024-02-04T08:07:16;0.20;;;0.20;;
49514;SDS011;35415;47.870;16.058;2024-02-04T08:09:45;0.10;;;0.10;;
49514;SDS011;35415;47.870;16.058;2024-02-04T08:12:13;0.20;;;0.20;;
49514;SDS011;35415;47.870;16.058;2024-02-04T08:14:40;0.20;;;0.20;;
49514;SDS011;35415;47.870;16.058;2024-02-04T08:17:07;0.28;;;0.28;;
49514;SDS011;35415;47.870;16.058;2024-02-04T08:19:34;0.15;;;0.15;;
49514;SDS011;35415;47.870;16.058;2024-02-04T08:22:01;0.20;;;0.20;;
49514;SDS011;35415;47.870;16.058;2024-02-04T08:24:30;0.20;;;0.20;;
49514;SDS011;35415;47.870;16.058;2024-02-04T08:26:58;0.30;;;0.30;;
49514;SDS011;35415;47.870;16.058;2024-02-04T08:29:26;0.20;;;0.20;;
49514;SDS011;35415;47.870;16.058;2024-02-04T08:31:53;0.10;;;0.10;;
49514;SDS011;35415;47.870;16.058;2024-02-04T08:34:20;0.10;;;0.10;;
49514;SDS011;35415;47.870;16.058;2024-02-04T08:36:49;0.10;;;0.10;;
49514;SDS011;35415;47.870;16.058;2024-02-04T08:39:16;0.20;;;0.10;;
49514;SDS011;35415;47.870;16.058;2024-02-04T08:41:45;0.32;;;0.20;;
49514;SDS011;35415;47.870;16.058;2024-02-04T08:44:12;0.00;;;0.00;;
49514;SDS011;35415;47.870;16.058;2024-02-04T08:46:39;0.10;;;0.10;;
49514;SDS011;35415;47.870;16.058;2024-02-04T08:49:06;0.20;;;0.20;;
49514;SDS011;35415;47.870;16.058;2024-02-04T08:51:33;0.15;;;0.15;;
49514;SDS011;35415;47.870;16.058;2024-02-04T08:54:00;0.38;;;0.30;;
49514;SDS011;35415;47.870;16.058;2024-02-04T08:56:28;0.15;;;0.10;;
49514;SDS011;35415;47.870;16.058;2024-02-04T08:58:56;0.17;;;0.13;;
49514;SDS011;35415;47.870;16.058;2024-02-04T09:01:25;0.30;;;0.30;;
49514;SDS011;35415;47.870;16.058;2024-02-04T09:03:52;0.28;;;0.20;;
49514;SDS011;35415;47.870;16.058;2024-02-04T09:06:19;0.40;;;0.20;;
49514;SDS011;35415;47.870;16.058;2024-02-04T09:08:46;0.52;;;0.38;;
49514;SDS011;35415;47.870;16.058;2024-02-04T09:11:13;0.10;;;0.10;;
49514;SDS011;35415;47.870;16.058;2024-02-04T09:13:44;0.10;;;0.10;;
49514;SDS011;35415;47.870;16.058;2024-02-04T09:16:12;0.15;;;0.15;;
49514;SDS011;35415;47.870;16.058;2024-02-04T09:18:40;1.52;;;0.20;;
49514;SDS011;35415;47.870;16.058;2024-02-04T09:21:07;0.30;;;0.30;;
49514;SDS011;35415;47.870;16.058;2024-02-04T09:23:34;0.10;;;0.10;;
49514;SDS011;35415;47.870;16.058;2024-02-04T09:26:01;0.00;;;0.00;;
49514;SDS011;35415;47.870;16.058;2024-02-04T09:28:28;0.10;;;0.10;;
49514;SDS011;35415;47.870;16.058;2024-02-04T09:30:55;0.10;;;0.10;;
49514;SDS011;35415;47.870;16.058;2024-02-04T09:33:24;0.20;;;0.20;;
49514;SDS011;35415;47.870;16.058;2024-02-04T09:35:51;1.33;;;0.95;;
49514;SDS011;35415;47.870;16.058;2024-02-04T09:38:19;0.38;;;0.38;;
49514;SDS011;35415;47.870;16.058;2024-02-04T09:40:47;0.70;;;0.63;;
49514;SDS011;35415;47.870;16.058;2024-02-04T09:43:14;0.85;;;0.20;;
49514;SDS011;35415;47.870;16.058;2024-02-04T09:45:42;0.30;;;0.30;;
49514;SDS011;35415;47.870;16.058;2024-02-04T09:48:09;2.28;;;0.77;;
49514;SDS011;35415;47.870;16.058;2024-02-04T09:50:38;0.20;;;0.20;;
49514;SDS011;35415;47.870;16.058;2024-02-04T09:53:06;0.10;;;0.10;;
49514;SDS011;35415;47.870;16.058;2024-02-04T09:55:35;1.40;;;0.80;;
49514;SDS011;35415;47.870;16.058;2024-02-04T09:58:05;0.10;;;0.10;;
49514;SDS011;35415;47.870;16.058;2024-02-04T10:00:32;1.02;;;0.65;;
49514;SDS011;35415;47.870;16.058;2024-02-04T10:03:00;0.40;;;0.40;;
49514;SDS011;35415;47.870;16.058;2024-02-04T10:05:30;0.45;;;0.25;;
49514;SDS011;35415;47.870;16.058;2024-02-04T10:07:59;0.10;;;0.10;;
49514;SDS011;35415;47.870;16.058;2024-02-04T10:10:26;1.13;;;0.15;;
49514;SDS011;35415;47.870;16.058;2024-02-04T10:12:55;0.13;;;0.13;;
49514;SDS011;35415;47.870;16.058;2024-02-04T10:15:22;0.10;;;0.10;;
49514;SDS011;35415;47.870;16.058;2024-02-04T10:17:49;0.00;;;0.00;;
49514;SDS011;35415;47.870;16.058;2024-02-04T10:20:19;0.00;;;0.00;;
49514;SDS011;35415;47.870;16.058;2024-02-04T10:22:46;0.10;;;0.10;;
49514;SDS011;35415;47.870;16.058;2024-02-04T10:25:16;0.00;;;0.00;;
49514;SDS011;35415;47.870;16.058;2024-02-04T10:27:46;0.00;;;0.00;;
49514;SDS011;35415;47.870;16.058;2024-02-04T10:30:13;0.10;;;0.10;;
49514;SDS011;35415;47.870;16.058;2024-02-04T10:32:41;0.00;;;0.00;;
49514;SDS011;35415;47.870;16.058;2024-02-04T10:35:10;0.05;;;0.05;;
49514;SDS011;35415;47.870;16.058;2024-02-04T10:37:37;1.90;;;0.10;;
49514;SDS011;35415;47.870;16.058;2024-02-04T10:40:04;0.00;;;0.00;;
49514;SDS011;35415;47.870;16.058;2024-02-04T10:42:37;0.00;;;0.00;;
49514;SDS011;35415;47.870;16.058;2024-02-04T10:45:07;0.20;;;0.20;;
49514;SDS011;35415;47.870;16.058;2024-02-04T10:47:36;0.10;;;0.10;;
49514;SDS011;35415;47.870;16.058;2024-02-04T10:50:05;0.05;;;0.05;;
49514;SDS011;35415;47.870;16.058;2024-02-04T10:52:35;0.10;;;0.10;;
49514;SDS011;35415;47.870;16.058;2024-02-04T10:55:04;0.13;;;0.10;;
49514;SDS011;35415;47.870;16.058;2024-02-04T10:57:34;0.10;;;0.10;;
49514;SDS011;35415;47.870;16.058;2024-02-04T11:00:03;0.10;;;0.10;;
49514;SDS011;35415;47.870;16.058;2024-02-04T11:02:34;0.00;;;0.00;;
49514;SDS011;35415;47.870;16.058;2024-02-04T11:05:02;0.35;;;0.10;;
49514;SDS011;35415;47.870;16.058;2024-02-04T11:07:31;0.10;;;0.10;;
49514;SDS011;35415;47.870;16.058;2024-02-04T11:09:59;0.00;;;0.00;;
49514;SDS011;35415;47.870;16.058;2024-02-04T11:12:27;0.05;;;0.05;;
49514;SDS011;35415;47.870;16.058;2024-02-04T11:14:57;0.00;;;0.00;;
49514;SDS011;35415;47.870;16.058;2024-02-04T11:17:38;0.00;;;0.00;;
49514;SDS011;35415;47.870;16.058;2024-02-04T11:20:26;0.00;;;0.00;;
49514;SDS011;35415;47.870;16.058;2024-02-04T11:23:13;0.00;;;0.00;;
49514;SDS011;35415;47.870;16.058;2024-02-04T11:25:54;0.03;;;0.03;;
49514;SDS011;35415;47.870;16.058;2024-02-04T11:28:23;0.00;;;0.00;;
49514;SDS011;35415;47.870;16.058;2024-02-04T11:30:51;0.00;;;0.00;;
49514;SDS011;35415;47.870;16.058;2024-02-04T11:33:20;0.10;;;0.10;;
49514;SDS011;35415;47.870;16.058;2024-02-04T11:35:58;0.00;;;0.00;;
49514;SDS011;35415;47.870;16.058;2024-02-04T11:38:29;0.10;;;0.10;;
49514;SDS011;35415;47.870;16.058;2024-02-04T11:41:02;0.10;;;0.10;;
49514;SDS011;35415;47.870;16.058;2024-02-04T11:43:32;0.10;;;0.10;;
49514;SDS011;35415;47.870;16.058;2024-02-04T11:45:59;0.10;;;0.10;;
49514;SDS011;35415;47.870;16.058;2024-02-04T11:48:30;0.00;;;0.00;;
49514;SDS011;35415;47.870;16.058;2024-02-04T11:50:59;0.00;;;0.00;;
49514;SDS011;35415;47.870;16.058;2024-02-04T11:53:26;0.00;;;0.00;;
49514;SDS011;35415;47.870;16.058;2024-02-04T11:55:57;0.00;;;0.00;;
49514;SDS011;35415;47.870;16.058;2024-02-04T11:58:25;0.00;;;0.00;;
49514;SDS011;35415;47.870;16.058;2024-02-04T12:00:53;0.00;;;0.00;;
49514;SDS011;35415;47.870;16.058;2024-02-04T12:03:30;0.00;;;0.00;;
49514;SDS011;35415;47.870;16.058;2024-02-04T12:05:58;0.00;;;0.00;;
49514;SDS011;35415;47.870;16.058;2024-02-04T12:08:26;0.10;;;0.10;;
49514;SDS011;35415;47.870;16.058;2024-02-04T12:10:54;0.00;;;0.00;;
49514;SDS011;35415;47.870;16.058;2024-02-04T12:13:21;0.10;;;0.10;;
49514;SDS011;35415;47.870;16.058;2024-02-04T12:15:49;0.10;;;0.10;;
49514;SDS011;35415;47.870;16.058;2024-02-04T12:18:16;0.10;;;0.10;;
49514;SDS011;35415;47.870;16.058;2024-02-04T12:20:47;0.10;;;0.10;;
49514;SDS011;35415;47.870;16.058;2024-02-04T12:23:16;0.20;;;0.10;;
49514;SDS011;35415;47.870;16.058;2024-02-04T12:25:44;0.10;;;0.10;;
49514;SDS011;35415;47.870;16.058;2024-02-04T12:28:11;0.00;;;0.00;;
49514;SDS011;35415;47.870;16.058;2024-02-04T12:30:40;0.35;;;0.10;;
49514;SDS011;35415;47.870;16.058;2024-02-04T12:33:07;0.10;;;0.10;;
49514;SDS011;35415;47.870;16.058;2024-02-04T12:35:35;0.00;;;0.00;;
49514;SDS011;35415;47.870;16.058;2024-02-04T12:38:03;0.08;;;0.08;;
49514;SDS011;35415;47.870;16.058;2024-02-04T12:40:32;0.10;;;0.10;;
49514;SDS011;35415;47.870;16.058;2024-02-04T12:43:00;0.10;;;0.10;;
49514;SDS011;35415;47.870;16.058;2024-02-04T12:45:28;0.20;;;0.20;;
49514;SDS011;35415;47.870;16.058;2024-02-04T12:47:56;0.47;;;0.10;;
49514;SDS011;35415;47.870;16.058;2024-02-04T12:50:24;1.02;;;0.32;;
49514;SDS011;35415;47.870;16.058;2024-02-04T12:53:01;0.10;;;0.10;;
49514;SDS011;35415;47.870;16.058;2024-02-04T12:55:32;0.08;;;0.08;;
49514;SDS011;35415;47.870;16.058;2024-02-04T12:58:04;0.15;;;0.10;;
49514;SDS011;35415;47.870;16.058;2024-02-04T13:00:31;0.00;;;0.00;;
49514;SDS011;35415;47.870;16.058;2024-02-04T13:02:59;0.10;;;0.10;;
49514;SDS011;35415;47.870;16.058;2024-02-04T13:05:26;0.77;;;0.77;;
49514;SDS011;35415;47.870;16.058;2024-02-04T13:07:55;0.10;;;0.10;;
49514;SDS011;35415;47.870;16.058;2024-02-04T13:10:25;0.10;;;0.10;;
49514;SDS011;35415;47.870;16.058;2024-02-04T13:13:02;0.00;;;0.00;;
49514;SDS011;35415;47.870;16.058;2024-02-04T13:15:32;0.10;;;0.10;;
49514;SDS011;35415;47.870;16.058;2024-02-04T13:18:01;0.10;;;0.10;;
49514;SDS011;35415;47.870;16.058;2024-02-04T13:20:28;0.20;;;0.17;;
49514;SDS011;35415;47.870;16.058;2024-02-04T13:22:55;0.10;;;0.10;;
49514;SDS011;35415;47.870;16.058;2024-02-04T13:25:23;0.05;;;0.05;;
49514;SDS011;35415;47.870;16.058;2024-02-04T13:27:51;0.20;;;0.20;;
49514;SDS011;35415;47.870;16.058;2024-02-04T13:30:19;0.10;;;0.10;;
49514;SDS011;35415;47.870;16.058;2024-02-04T13:32:46;0.10;;;0.10;;
49514;SDS011;35415;47.870;16.058;2024-02-04T13:35:14;0.22;;;0.22;;
49514;SDS011;35415;47.870;16.058;2024-02-04T13:37:41;0.10;;;0.10;;
49514;SDS011;35415;47.870;16.058;2024-02-04T13:40:12;0.20;;;0.17;;
49514;SDS011;35415;47.870;16.058;2024-02-04T13:42:40;0.10;;;0.10;;
49514;SDS011;35415;47.870;16.058;2024-02-04T13:45:09;0.10;;;0.10;;
49514;SDS011;35415;47.870;16.058;2024-02-04T13:47:38;0.00;;;0.00;;
49514;SDS011;35415;47.870;16.058;2024-02-04T13:50:05;0.25;;;0.15;;
49514;SDS011;35415;47.870;16.058;2024-02-04T13:52:34;0.25;;;0.17;;
49514;SDS011;35415;47.870;16.058;2024-02-04T13:55:01;0.63;;;0.32;;
49514;SDS011;35415;47.870;16.058;2024-02-04T13:57:30;0.00;;;0.00;;
49514;SDS011;35415;47.870;16.058;2024-02-04T13:59:57;0.10;;;0.10;;
49514;SDS011;35415;47.870;16.058;2024-02-04T14:02:26;0.25;;;0.20;;
49514;SDS011;35415;47.870;16.058;2024-02-04T14:04:55;0.10;;;0.10;;
49514;SDS011;35415;47.870;16.058;2024-02-04T14:07:22;0.10;;;0.10;;
49514;SDS011;35415;47.870;16.058;2024-02-04T14:09:49;0.08;;;0.08;;
49514;SDS011;35415;47.870;16.058;2024-02-04T14:12:16;0.20;;;0.20;;
49514;SDS011;35415;47.870;16.058;2024-02-04T14:14:43;0.30;;;0.30;;
49514;SDS011;35415;47.870;16.058;2024-02-04T14:17:10;2.30;;;0.20;;
49514;SDS011;35415;47.870;16.058;2024-02-04T14:19:39;1.80;;;0.22;;
49514;SDS011;35415;47.870;16.058;2024-02-04T14:22:06;0.30;;;0.15;;
49514;SDS011;35415;47.870;16.058;2024-02-04T14:24:33;0.10;;;0.10;;
49514;SDS011;35415;47.870;16.058;2024-02-04T14:27:00;0.20;;;0.20;;
49514;SDS011;35415;47.870;16.058;2024-02-04T14:29:28;0.75;;;0.30;;
49514;SDS011;35415;47.870;16.058;2024-02-04T14:31:55;0.10;;;0.10;;
49514;SDS011;35415;47.870;16.058;2024-02-04T14:34:23;0.20;;;0.20;;
49514;SDS011;35415;47.870;16.058;2024-02-04T14:36:51;0.10;;;0.10;;
49514;SDS011;35415;47.870;16.058;2024-02-04T14:39:19;0.10;;;0.10;;